sensor_id;sensor_type;location;lat;lon;timestamp;P1;durP1;ratioP1;P2;durP2;ratioP2
25509;SDS011;13413;52.336;21.200;2023-05-23T14:02:23;7.60;;;3.70;;
25509;SDS011;13413;52.336;21.200;2023-05-23T14:05:17;4.00;;;3.40;;
25509;SDS011;13413;52.336;21.200;2023-05-23T14:08:11;3.80;;;3.40;;
25509;SDS011;13413;52.336;21.200;2023-05-23T14:11:05;7.90;;;3.60;;
25509;SDS011;13413;52.336;21.200;2023-05-23T14:13:59;3.60;;;3.20;;
25509;SDS011;13413;52.336;21.200;2023-05-23T14:16:53;4.30;;;3.40;;
25509;SDS011;13413;52.336;21.200;2023-05-23T14:19:49;4.70;;;3.50;;
25509;SDS011;13413;52.336;21.200;2023-05-23T14:22:43;4.90;;;4.10;;
25509;SDS011;13413;52.336;21.200;2023-05-23T14:25:37;7.90;;;4.20;;
25509;SDS011;13413;52.336;21.200;2023-05-23T14:28:31;5.00;;;3.40;;
25509;SDS011;13413;52.336;21.200;2023-05-23T14:31:25;6.90;;;3.90;;
25509;SDS011;13413;52.336;21.200;2023-05-23T14:34:20;5.10;;;3.70;;
25509;SDS011;13413;52.336;21.200;2023-05-23T14:37:16;5.40;;;3.80;;
25509;SDS011;13413;52.336;21.200;2023-05-23T14:40:10;5.80;;;3.50;;
25509;SDS011;13413;52.336;21.200;2023-05-23T14:43:05;4.80;;;4.10;;
25509;SDS011;13413;52.336;21.200;2023-05-23T14:45:59;8.30;;;4.40;;
25509;SDS011;13413;52.336;21.200;2023-05-23T14:48:53;12.80;;;4.90;;
25509;SDS011;13413;52.336;21.200;2023-05-23T14:51:47;5.00;;;3.70;;
25509;SDS011;13413;52.336;21.200;2023-05-23T14:54:41;11.00;;;5.50;;
25509;SDS011;13413;52.336;21.200;2023-05-23T14:57:35;6.00;;;4.40;;
25509;SDS011;13413;52.336;21.200;2023-05-23T15:00:29;8.00;;;4.10;;
25509;SDS011;13413;52.336;21.200;2023-05-23T15:03:23;9.20;;;4.20;;
25509;SDS011;13413;52.336;21.200;2023-05-23T15:06:17;9.80;;;4.50;;
25509;SDS011;13413;52.336;21.200;2023-05-23T15:09:11;8.60;;;3.50;;
25509;SDS011;13413;52.336;21.200;2023-05-23T15:12:06;6.40;;;4.50;;
25509;SDS011;13413;52.336;21.200;2023-05-23T15:15:00;4.40;;;3.90;;
25509;SDS011;13413;52.336;21.200;2023-05-23T15:17:55;7.30;;;4.10;;
25509;SDS011;13413;52.336;21.200;2023-05-23T15:20:49;7.40;;;4.40;;
25509;SDS011;13413;52.336;21.200;2023-05-23T15:23:43;5.60;;;4.20;;
25509;SDS011;13413;52.336;21.200;2023-05-23T15:26:37;10.90;;;4.80;;
25509;SDS011;13413;52.336;21.200;2023-05-23T15:32:27;8.70;;;4.50;;
25509;SDS011;13413;52.336;21.200;2023-05-23T15:35:21;11.50;;;5.00;;
25509;SDS011;13413;52.336;21.200;2023-05-23T15:38:15;8.20;;;4.80;;
25509;SDS011;13413;52.336;21.200;2023-05-23T15:41:10;10.30;;;4.50;;
25509;SDS011;13413;52.336;21.200;2023-05-23T15:44:04;5.20;;;4.30;;
25509;SDS011;13413;52.336;21.200;2023-05-23T15:46:58;8.70;;;4.40;;
25509;SDS011;13413;52.336;21.200;2023-05-23T15:49:52;9.30;;;4.70;;
25509;SDS011;13413;52.336;21.200;2023-05-23T15:52:46;7.40;;;4.20;;
25509;SDS011;13413;52.336;21.200;2023-05-23T15:55:40;7.80;;;4.30;;
25509;SDS011;13413;52.336;21.200;2023-05-23T15:58:34;18.90;;;5.50;;
25509;SDS011;13413;52.336;21.200;2023-05-23T16:01:28;7.90;;;4.30;;
25509;SDS011;13413;52.336;21.200;2023-05-23T16:04:22;8.40;;;4.80;;
25509;SDS011;13413;52.336;21.200;2023-05-23T16:07:16;7.30;;;4.20;;
25509;SDS011;13413;52.336;21.200;2023-05-23T16:10:10;7.90;;;3.50;;
25509;SDS011;13413;52.336;21.200;2023-05-23T16:13:04;5.00;;;4.00;;
25509;SDS011;13413;52.336;21.200;2023-05-23T16:18:52;5.30;;;4.10;;
25509;SDS011;13413;52.336;21.200;2023-05-23T16:21:46;6.50;;;3.80;;
25509;SDS011;13413;52.336;21.200;2023-05-23T16:24:40;6.20;;;4.30;;
25509;SDS011;13413;52.336;21.200;2023-05-23T16:27:34;6.60;;;4.10;;
25509;SDS011;13413;52.336;21.200;2023-05-23T16:30:28;8.00;;;4.50;;
25509;SDS011;13413;52.336;21.200;2023-05-23T16:33:22;7.20;;;4.50;;
25509;SDS011;13413;52.336;21.200;2023-05-23T16:36:16;4.70;;;4.00;;
25509;SDS011;13413;52.336;21.200;2023-05-23T16:39:10;7.50;;;4.60;;
25509;SDS011;13413;52.336;21.200;2023-05-23T16:42:05;6.30;;;4.50;;
25509;SDS011;13413;52.336;21.200;2023-05-23T16:47:51;6.90;;;4.20;;
25509;SDS011;13413;52.336;21.200;2023-05-23T16:50:45;12.80;;;4.50;;
25509;SDS011;13413;52.336;21.200;2023-05-23T16:53:40;7.50;;;4.50;;
25509;SDS011;13413;52.336;21.200;2023-05-23T16:56:34;6.50;;;4.80;;
25509;SDS011;13413;52.336;21.200;2023-05-23T16:59:28;6.00;;;4.60;;
25509;SDS011;13413;52.336;21.200;2023-05-23T17:02:22;13.10;;;4.00;;
25509;SDS011;13413;52.336;21.200;2023-05-23T17:05:16;8.00;;;4.40;;
25509;SDS011;13413;52.336;21.200;2023-05-23T17:08:11;7.60;;;5.00;;
25509;SDS011;13413;52.336;21.200;2023-05-23T17:11:05;6.00;;;5.00;;
25509;SDS011;13413;52.336;21.200;2023-05-23T17:13:59;7.10;;;5.10;;
25509;SDS011;13413;52.336;21.200;2023-05-23T17:16:53;4.40;;;4.00;;
25509;SDS011;13413;52.336;21.200;2023-05-23T17:19:47;6.40;;;4.70;;
25509;SDS011;13413;52.336;21.200;2023-05-23T17:22:41;5.80;;;5.00;;
25509;SDS011;13413;52.336;21.200;2023-05-23T17:25:35;5.60;;;4.80;;
25509;SDS011;13413;52.336;21.200;2023-05-23T17:28:29;9.40;;;4.10;;
25509;SDS011;13413;52.336;21.200;2023-05-23T17:31:24;12.50;;;4.80;;
25509;SDS011;13413;52.336;21.200;2023-05-23T17:34:18;6.50;;;4.80;;
25509;SDS011;13413;52.336;21.200;2023-05-23T17:37:12;9.20;;;5.20;;
25509;SDS011;13413;52.336;21.200;2023-05-23T17:40:06;8.60;;;4.90;;
25509;SDS011;13413;52.336;21.200;2023-05-23T17:43:01;5.60;;;4.90;;
25509;SDS011;13413;52.336;21.200;2023-05-23T17:48:49;7.40;;;5.00;;
25509;SDS011;13413;52.336;21.200;2023-05-23T17:51:44;6.90;;;5.00;;
25509;SDS011;13413;52.336;21.200;2023-05-23T17:54:38;8.90;;;5.00;;
25509;SDS011;13413;52.336;21.200;2023-05-23T17:57:32;7.90;;;5.00;;
25509;SDS011;13413;52.336;21.200;2023-05-23T18:00:26;8.10;;;5.10;;
25509;SDS011;13413;52.336;21.200;2023-05-23T18:03:20;8.40;;;5.90;;
25509;SDS011;13413;52.336;21.200;2023-05-23T18:06:14;13.80;;;7.50;;
25509;SDS011;13413;52.336;21.200;2023-05-23T18:09:08;16.10;;;10.40;;
25509;SDS011;13413;52.336;21.200;2023-05-23T18:12:02;13.10;;;7.60;;
25509;SDS011;13413;52.336;21.200;2023-05-23T18:14:57;17.10;;;9.80;;
25509;SDS011;13413;52.336;21.200;2023-05-23T18:17:51;16.00;;;7.90;;
25509;SDS011;13413;52.336;21.200;2023-05-23T18:20:45;8.10;;;6.70;;
25509;SDS011;13413;52.336;21.200;2023-05-23T18:23:39;10.00;;;6.30;;
25509;SDS011;13413;52.336;21.200;2023-05-23T18:26:33;12.50;;;7.00;;
25509;SDS011;13413;52.336;21.200;2023-05-23T18:38:15;11.60;;;6.60;;
25509;SDS011;13413;52.336;21.200;2023-05-23T18:41:09;14.20;;;7.10;;
25509;SDS011;13413;52.336;21.200;2023-05-23T18:44:03;10.40;;;6.60;;
25509;SDS011;13413;52.336;21.200;2023-05-23T18:46:59;11.30;;;7.20;;
25509;SDS011;13413;52.336;21.200;2023-05-23T18:49:53;16.60;;;7.10;;
25509;SDS011;13413;52.336;21.200;2023-05-23T18:52:47;14.70;;;8.80;;
25509;SDS011;13413;52.336;21.200;2023-05-23T18:55:41;11.50;;;7.40;;
25509;SDS011;13413;52.336;21.200;2023-05-23T18:58:35;20.00;;;8.20;;
25509;SDS011;13413;52.336;21.200;2023-05-23T19:01:29;12.00;;;7.70;;
25509;SDS011;13413;52.336;21.200;2023-05-23T19:04:23;17.50;;;7.90;;
25509;SDS011;13413;52.336;21.200;2023-05-23T19:07:17;9.70;;;8.30;;
25509;SDS011;13413;52.336;21.200;2023-05-23T19:10:14;14.50;;;8.60;;
25509;SDS011;13413;52.336;21.200;2023-05-23T19:13:08;13.10;;;8.70;;
25509;SDS011;13413;52.336;21.200;2023-05-23T19:16:03;12.20;;;8.70;;
25509;SDS011;13413;52.336;21.200;2023-05-23T19:18:57;12.50;;;7.90;;
25509;SDS011;13413;52.336;21.200;2023-05-23T19:21:51;16.40;;;9.30;;
25509;SDS011;13413;52.336;21.200;2023-05-23T19:24:45;15.90;;;8.80;;
25509;SDS011;13413;52.336;21.200;2023-05-23T19:27:39;26.40;;;10.10;;
25509;SDS011;13413;52.336;21.200;2023-05-23T19:30:33;16.40;;;9.40;;
25509;SDS011;13413;52.336;21.200;2023-05-23T19:33:27;16.80;;;8.80;;
25509;SDS011;13413;52.336;21.200;2023-05-23T19:36:21;16.80;;;9.60;;
25509;SDS011;13413;52.336;21.200;2023-05-23T19:39:18;15.80;;;9.40;;
25509;SDS011;13413;52.336;21.200;2023-05-23T19:42:12;17.30;;;9.60;;
25509;SDS011;13413;52.336;21.200;2023-05-23T19:45:07;12.30;;;9.30;;
25509;SDS011;13413;52.336;21.200;2023-05-23T19:48:02;12.70;;;9.70;;
25509;SDS011;13413;52.336;21.200;2023-05-23T19:50:56;16.40;;;11.00;;
25509;SDS011;13413;52.336;21.200;2023-05-23T19:53:51;13.70;;;9.80;;
25509;SDS011;13413;52.336;21.200;2023-05-23T19:56:45;18.60;;;11.10;;
25509;SDS011;13413;52.336;21.200;2023-05-23T19:59:39;19.90;;;10.20;;
25509;SDS011;13413;52.336;21.200;2023-05-23T20:02:33;15.80;;;11.20;;
25509;SDS011;13413;52.336;21.200;2023-05-23T20:05:27;17.50;;;10.50;;
25509;SDS011;13413;52.336;21.200;2023-05-23T20:08:22;19.10;;;10.00;;
25509;SDS011;13413;52.336;21.200;2023-05-23T20:11:16;13.40;;;9.60;;
25509;SDS011;13413;52.336;21.200;2023-05-23T20:14:10;15.60;;;9.40;;
25509;SDS011;13413;52.336;21.200;2023-05-23T20:17:04;13.00;;;9.00;;
25509;SDS011;13413;52.336;21.200;2023-05-23T20:19:59;19.00;;;8.90;;
25509;SDS011;13413;52.336;21.200;2023-05-23T20:22:53;20.40;;;9.40;;
25509;SDS011;13413;52.336;21.200;2023-05-23T20:25:47;16.00;;;9.20;;
25509;SDS011;13413;52.336;21.200;2023-05-23T20:28:41;13.10;;;9.10;;
25509;SDS011;13413;52.336;21.200;2023-05-23T20:31:35;11.50;;;9.50;;
25509;SDS011;13413;52.336;21.200;2023-05-23T20:34:29;14.40;;;9.30;;
25509;SDS011;13413;52.336;21.200;2023-05-23T20:37:23;13.30;;;8.60;;
25509;SDS011;13413;52.336;21.200;2023-05-23T20:40:20;20.70;;;9.60;;
25509;SDS011;13413;52.336;21.200;2023-05-23T20:43:13;10.90;;;8.10;;
25509;SDS011;13413;52.336;21.200;2023-05-23T20:49:00;15.30;;;7.70;;
25509;SDS011;13413;52.336;21.200;2023-05-23T20:57:33;10.60;;;8.60;;
25509;SDS011;13413;52.336;21.200;2023-05-23T21:03:20;10.70;;;8.20;;
25509;SDS011;13413;52.336;21.200;2023-05-23T21:06:14;11.90;;;9.40;;
25509;SDS011;13413;52.336;21.200;2023-05-23T21:09:09;13.20;;;8.40;;
25509;SDS011;13413;52.336;21.200;2023-05-23T21:12:04;12.70;;;8.80;;
25509;SDS011;13413;52.336;21.200;2023-05-23T21:14:58;14.70;;;8.70;;
25509;SDS011;13413;52.336;21.200;2023-05-23T21:17:53;13.00;;;8.60;;
25509;SDS011;13413;52.336;21.200;2023-05-23T21:20:47;14.60;;;9.20;;
25509;SDS011;13413;52.336;21.200;2023-05-23T21:23:41;13.00;;;9.40;;
25509;SDS011;13413;52.336;21.200;2023-05-23T21:26:35;17.90;;;9.00;;
25509;SDS011;13413;52.336;21.200;2023-05-23T21:29:30;12.30;;;8.20;;
25509;SDS011;13413;52.336;21.200;2023-05-23T21:32:24;8.50;;;7.40;;
25509;SDS011;13413;52.336;21.200;2023-05-23T21:35:18;11.50;;;8.00;;
25509;SDS011;13413;52.336;21.200;2023-05-23T21:38:12;12.70;;;8.60;;
25509;SDS011;13413;52.336;21.200;2023-05-23T21:41:07;10.20;;;7.80;;
25509;SDS011;13413;52.336;21.200;2023-05-23T21:44:01;10.70;;;8.40;;
25509;SDS011;13413;52.336;21.200;2023-05-23T21:46:55;11.20;;;8.00;;
25509;SDS011;13413;52.336;21.200;2023-05-23T21:49:49;10.10;;;7.70;;
25509;SDS011;13413;52.336;21.200;2023-05-23T21:52:43;10.40;;;8.60;;
25509;SDS011;13413;52.336;21.200;2023-05-23T21:55:37;9.90;;;7.70;;
25509;SDS011;13413;52.336;21.200;2023-05-23T21:58:34;9.50;;;7.70;;
25509;SDS011;13413;52.336;21.200;2023-05-23T22:01:29;10.80;;;8.50;;
25509;SDS011;13413;52.336;21.200;2023-05-23T22:04:23;17.00;;;8.70;;
25509;SDS011;13413;52.336;21.200;2023-05-23T22:07:17;10.90;;;8.50;;
25509;SDS011;13413;52.336;21.200;2023-05-23T22:10:12;10.10;;;8.40;;
25509;SDS011;13413;52.336;21.200;2023-05-23T22:13:12;12.90;;;8.30;;
25509;SDS011;13413;52.336;21.200;2023-05-23T22:16:07;12.20;;;8.80;;
25509;SDS011;13413;52.336;21.200;2023-05-23T22:19:01;12.80;;;8.60;;
25509;SDS011;13413;52.336;21.200;2023-05-23T22:21:55;10.50;;;8.20;;
25509;SDS011;13413;52.336;21.200;2023-05-23T22:24:49;11.30;;;8.30;;
25509;SDS011;13413;52.336;21.200;2023-05-23T22:27:43;10.70;;;8.80;;
25509;SDS011;13413;52.336;21.200;2023-05-23T22:30:37;11.40;;;8.30;;
25509;SDS011;13413;52.336;21.200;2023-05-23T22:33:31;12.00;;;7.80;;
25509;SDS011;13413;52.336;21.200;2023-05-23T22:36:25;15.90;;;8.60;;
25509;SDS011;13413;52.336;21.200;2023-05-23T22:39:19;10.40;;;8.20;;
25509;SDS011;13413;52.336;21.200;2023-05-23T22:42:14;12.20;;;8.30;;
25509;SDS011;13413;52.336;21.200;2023-05-23T22:45:09;14.90;;;9.10;;
25509;SDS011;13413;52.336;21.200;2023-05-23T22:50:56;12.90;;;8.40;;
25509;SDS011;13413;52.336;21.200;2023-05-23T22:57:01;10.40;;;8.70;;
25509;SDS011;13413;52.336;21.200;2023-05-23T22:59:56;10.30;;;8.80;;
25509;SDS011;13413;52.336;21.200;2023-05-23T23:05:46;15.10;;;8.20;;
25509;SDS011;13413;52.336;21.200;2023-05-23T23:19:06;14.50;;;8.60;;
25509;SDS011;13413;52.336;21.200;2023-05-23T23:22:00;11.90;;;8.30;;
25509;SDS011;13413;52.336;21.200;2023-05-23T23:24:53;10.50;;;8.20;;
25509;SDS011;13413;52.336;21.200;2023-05-23T23:27:48;9.40;;;8.40;;
25509;SDS011;13413;52.336;21.200;2023-05-23T23:30:42;14.20;;;8.60;;
25509;SDS011;13413;52.336;21.200;2023-05-23T23:33:36;15.70;;;8.60;;
25509;SDS011;13413;52.336;21.200;2023-05-23T23:36:31;10.30;;;8.30;;
25509;SDS011;13413;52.336;21.200;2023-05-23T23:39:26;11.00;;;8.80;;
25509;SDS011;13413;52.336;21.200;2023-05-23T23:42:21;9.70;;;8.40;;
25509;SDS011;13413;52.336;21.200;2023-05-23T23:45:15;9.90;;;8.40;;
25509;SDS011;13413;52.336;21.200;2023-05-23T23:51:28;11.10;;;8.20;;
25509;SDS011;13413;52.336;21.200;2023-05-23T23:54:21;11.30;;;8.00;;
25509;SDS011;13413;52.336;21.200;2023-05-23T23:57:16;11.90;;;8.50;;
